YRB weather

Resolute Bay Airport
Resolute Bay, Nunavut, Canada

Public forecast

Using degrees Celsius for public forecast. Weather courtesy of forecast.io.

Current aviation weather report (METAR) for Resolute Bay Airport

Retrieved 2019/10/19 09:00 UTC (30 minutes ago):

CYRB 190900Z 00000KT 15SM IC SCT013 M14/M15 A3012 RMK SC3 SLP210

Aviation forecast (TAF) for Resolute Bay Airport

Retrieved 2019/10/19 06:42 UTC (3 hours ago):

TAF CYRB 190538Z 1906/2006 VRB03KT P6SM SCT010 BKN070 TEMPO 1906/1909 P6SM -SN BKN010 OVC080 BECMG 1907/1909 04008KT FM190900 04008KT 4SM -SN BKN010 OVC060 TEMPO 1909/2006 P6SM -SN SCT010 BKN060 RMK NXT FCST BY 191200Z